Time;durP1;ratioP1;P1;durP2;ratioP2;P2;SDS_P1;SDS_P2;PMS_P1;PMS_P2;Temp;Humidity;BMP_temperature;BMP_pressure;BME280_temperature;BME280_humidity;BME280_pressure;Samples;Min_cycle;Max_cycle;Signal;HPM_P1;HPM_P2
2021/07/18 00:00:11;;;;;;;10.45;2.90;;;;;;;;;;5035791;28;20087;-71
2021/07/18 00:02:37;;;;;;;6.07;2.80;;;;;;;;;;5035865;28;20025;-71
2021/07/18 00:05:03;;;;;;;6.35;2.58;;;;;;;;;;5035618;28;20031;-71
2021/07/18 00:07:29;;;;;;;5.82;2.60;;;;;;;;;;5035669;28;20032;-71
2021/07/18 00:09:55;;;;;;;7.68;2.38;;;;;;;;;;5035734;28;20030;-71
2021/07/18 00:12:21;;;;;;;4.63;2.35;;;;;;;;;;5035790;28;20083;-71
2021/07/18 00:14:47;;;;;;;4.38;2.58;;;;;;;;;;5035605;28;20115;-71
2021/07/18 00:17:13;;;;;;;8.18;2.40;;;;;;;;;;5035328;28;20025;-71
2021/07/18 00:19:39;;;;;;;5.80;2.63;;;;;;;;;;5035434;28;20025;-71
2021/07/18 00:22:06;;;;;;;4.55;2.67;;;;;;;;;;5035521;28;20029;-72
2021/07/18 00:24:32;;;;;;;13.50;3.72;;;;;;;;;;5035170;28;20531;-71
2021/07/18 00:26:58;;;;;;;4.65;2.70;;;;;;;;;;5034822;28;20096;-71
2021/07/18 00:29:25;;;;;;;6.82;2.47;;;;;;;;;;5035496;28;20131;-71
2021/07/18 00:31:54;;;;;;;6.88;2.60;;;;;;;;;;5035138;28;20026;-71
2021/07/18 00:34:21;;;;;;;7.20;2.90;;;;;;;;;;5034985;28;20026;-71
2021/07/18 00:36:49;;;;;;;5.07;2.40;;;;;;;;;;5035293;28;20104;-71
2021/07/18 00:39:15;;;;;;;4.40;2.70;;;;;;;;;;5035241;28;20033;-71
2021/07/18 00:41:42;;;;;;;7.25;3.20;;;;;;;;;;5035394;28;20287;-71
2021/07/18 00:44:08;;;;;;;5.88;2.78;;;;;;;;;;5034950;28;20485;-71
2021/07/18 00:46:37;;;;;;;5.20;2.60;;;;;;;;;;5035084;28;20060;-71
2021/07/18 00:49:03;;;;;;;6.82;3.00;;;;;;;;;;5035377;28;20041;-71
2021/07/18 00:51:32;;;;;;;4.53;2.78;;;;;;;;;;5035134;28;20032;-71
2021/07/18 00:53:58;;;;;;;5.13;2.75;;;;;;;;;;5034893;28;20029;-71
2021/07/18 00:56:24;;;;;;;8.55;3.35;;;;;;;;;;5034611;28;20044;-71
2021/07/18 00:58:54;;;;;;;7.00;3.25;;;;;;;;;;5032545;28;20030;-71
2021/07/18 01:01:20;;;;;;;8.65;2.90;;;;;;;;;;5030449;28;20101;-71
2021/07/18 01:03:46;;;;;;;9.00;2.92;;;;;;;;;;5032103;28;20026;-72
2021/07/18 01:06:15;;;;;;;6.72;3.10;;;;;;;;;;5034606;28;20026;-71
2021/07/18 01:08:41;;;;;;;5.70;2.67;;;;;;;;;;5034906;28;20098;-71
2021/07/18 01:11:07;;;;;;;9.98;3.28;;;;;;;;;;5034850;28;20075;-71
2021/07/18 01:13:33;;;;;;;5.15;3.33;;;;;;;;;;5034179;28;20036;-71
2021/07/18 01:16:00;;;;;;;6.88;3.47;;;;;;;;;;5034302;28;20021;-71
2021/07/18 01:18:26;;;;;;;5.88;3.03;;;;;;;;;;5034474;28;20386;-71
2021/07/18 01:20:52;;;;;;;10.75;2.80;;;;;;;;;;5034091;28;20470;-71
2021/07/18 01:23:18;;;;;;;9.93;3.10;;;;;;;;;;5034402;28;20393;-71
2021/07/18 01:25:44;;;;;;;6.60;3.22;;;;;;;;;;5034197;28;20018;-71
2021/07/18 01:28:12;;;;;;;8.50;3.25;;;;;;;;;;5033913;28;20084;-71
2021/07/18 01:30:38;;;;;;;5.40;3.30;;;;;;;;;;5034374;28;20032;-71
2021/07/18 01:33:04;;;;;;;8.70;3.55;;;;;;;;;;5034235;28;20064;-71
2021/07/18 01:35:30;;;;;;;5.78;3.00;;;;;;;;;;5033800;28;20099;-71
2021/07/18 01:37:57;;;;;;;8.85;2.97;;;;;;;;;;5033668;28;20091;-71
2021/07/18 01:40:23;;;;;;;7.00;3.10;;;;;;;;;;5034259;28;20022;-71
2021/07/18 01:42:49;;;;;;;4.55;2.97;;;;;;;;;;5033893;28;20033;-71
2021/07/18 01:45:15;;;;;;;9.40;2.75;;;;;;;;;;5033516;28;20052;-71
2021/07/18 01:47:42;;;;;;;6.38;3.13;;;;;;;;;;5033704;28;20082;-71
2021/07/18 01:50:08;;;;;;;5.28;3.40;;;;;;;;;;5032322;28;20094;-71
2021/07/18 01:52:34;;;;;;;7.28;3.20;;;;;;;;;;5033816;28;20033;-71
2021/07/18 01:55:00;;;;;;;7.13;3.15;;;;;;;;;;5033602;28;20474;-71
2021/07/18 01:57:26;;;;;;;8.43;3.47;;;;;;;;;;5033825;28;20046;-71
2021/07/18 01:59:52;;;;;;;5.82;2.72;;;;;;;;;;5033343;28;20103;-71
2021/07/18 02:02:18;;;;;;;7.03;2.85;;;;;;;;;;5033709;28;20367;-71
2021/07/18 02:04:51;;;;;;;4.88;3.13;;;;;;;;;;5033648;28;20037;-71
2021/07/18 02:07:17;;;;;;;6.03;3.10;;;;;;;;;;5033650;28;20462;-71
2021/07/18 02:09:44;;;;;;;6.50;2.92;;;;;;;;;;5033382;28;20065;-71
2021/07/18 02:12:11;;;;;;;6.25;3.08;;;;;;;;;;5032237;28;20021;-71
2021/07/18 02:14:41;;;;;;;13.55;3.47;;;;;;;;;;5033536;28;20029;-71
2021/07/18 02:17:07;;;;;;;5.18;3.20;;;;;;;;;;5033457;28;20080;-71
2021/07/18 02:19:33;;;;;;;9.15;3.20;;;;;;;;;;5033774;28;20041;-71
2021/07/18 02:22:00;;;;;;;4.03;2.88;;;;;;;;;;5031928;28;20025;-72
2021/07/18 02:24:26;;;;;;;7.70;3.65;;;;;;;;;;5033106;28;20033;-71
2021/07/18 02:26:52;;;;;;;10.40;3.97;;;;;;;;;;5033193;28;20052;-71
2021/07/18 02:29:18;;;;;;;3.83;3.15;;;;;;;;;;5033135;28;20052;-71
2021/07/18 02:31:45;;;;;;;5.03;2.97;;;;;;;;;;5033087;28;20048;-71
2021/07/18 02:34:11;;;;;;;6.00;3.70;;;;;;;;;;5033089;28;20033;-71
2021/07/18 02:36:37;;;;;;;5.47;2.80;;;;;;;;;;5033094;28;20033;-71
2021/07/18 02:39:04;;;;;;;6.97;3.05;;;;;;;;;;5033079;28;20029;-71
2021/07/18 02:41:34;;;;;;;7.45;3.20;;;;;;;;;;5033018;28;20021;-71
2021/07/18 02:44:00;;;;;;;4.43;3.05;;;;;;;;;;5032757;28;20393;-71
2021/07/18 02:46:26;;;;;;;5.13;3.20;;;;;;;;;;5032934;28;20021;-71
2021/07/18 02:48:52;;;;;;;15.13;3.45;;;;;;;;;;5031829;28;20045;-71
2021/07/18 02:51:18;;;;;;;6.55;2.88;;;;;;;;;;5033150;28;20025;-71
2021/07/18 02:53:45;;;;;;;7.40;3.33;;;;;;;;;;5032972;28;20069;-71
2021/07/18 02:56:11;;;;;;;7.32;2.97;;;;;;;;;;5033152;28;20125;-71
2021/07/18 02:58:37;;;;;;;5.85;3.30;;;;;;;;;;5032824;28;20518;-71
2021/07/18 03:01:03;;;;;;;5.03;3.40;;;;;;;;;;5033057;28;20025;-71
2021/07/18 03:03:29;;;;;;;5.03;3.28;;;;;;;;;;5032993;28;20130;-71
2021/07/18 03:05:55;;;;;;;10.38;3.45;;;;;;;;;;5032793;28;20382;-71
2021/07/18 03:08:21;;;;;;;5.78;3.58;;;;;;;;;;5032764;28;20091;-71
2021/07/18 03:10:47;;;;;;;4.05;3.13;;;;;;;;;;5032758;28;20044;-71
2021/07/18 03:13:13;;;;;;;7.85;3.38;;;;;;;;;;5032553;28;20033;-71
2021/07/18 03:15:39;;;;;;;6.18;3.63;;;;;;;;;;5032736;28;20492;-71
2021/07/18 03:18:08;;;;;;;5.45;3.45;;;;;;;;;;5032734;28;20026;-71
2021/07/18 03:20:34;;;;;;;4.90;3.40;;;;;;;;;;5032792;28;20057;-71
2021/07/18 03:23:02;;;;;;;6.55;3.42;;;;;;;;;;5032262;28;20025;-71
2021/07/18 03:25:28;;;;;;;5.63;2.97;;;;;;;;;;5032622;28;20469;-71
2021/07/18 03:27:54;;;;;;;6.90;3.20;;;;;;;;;;5032557;28;20033;-71
2021/07/18 03:30:21;;;;;;;5.75;2.90;;;;;;;;;;5032655;28;20065;-71
2021/07/18 03:32:47;;;;;;;5.38;3.28;;;;;;;;;;5032595;28;20018;-71
2021/07/18 03:35:14;;;;;;;8.77;3.60;;;;;;;;;;5032544;28;20116;-71
2021/07/18 03:37:40;;;;;;;9.23;3.15;;;;;;;;;;5032686;28;20021;-71
2021/07/18 03:40:08;;;;;;;7.47;3.45;;;;;;;;;;5032656;28;20033;-71
2021/07/18 03:42:36;;;;;;;10.13;3.47;;;;;;;;;;5032380;28;20382;-71
2021/07/18 03:45:05;;;;;;;5.15;3.38;;;;;;;;;;5032088;28;20101;-71
2021/07/18 03:47:31;;;;;;;5.85;2.95;;;;;;;;;;5032448;28;20536;-71
2021/07/18 03:49:57;;;;;;;6.55;3.42;;;;;;;;;;5032536;28;20030;-71
2021/07/18 03:52:23;;;;;;;5.55;2.78;;;;;;;;;;5032265;28;20034;-71
2021/07/18 03:54:49;;;;;;;9.68;3.05;;;;;;;;;;5032179;28;20030;-71
2021/07/18 03:57:15;;;;;;;8.23;3.70;;;;;;;;;;5032019;28;20050;-71
2021/07/18 03:59:41;;;;;;;8.30;3.78;;;;;;;;;;5033279;28;20025;-71
2021/07/18 04:02:07;;;;;;;5.10;3.35;;;;;;;;;;5035999;28;20497;-71
2021/07/18 04:04:36;;;;;;;7.35;3.15;;;;;;;;;;5036006;28;20029;-71
2021/07/18 04:07:02;;;;;;;6.78;3.40;;;;;;;;;;5036062;28;20033;-71
2021/07/18 04:09:28;;;;;;;4.85;3.10;;;;;;;;;;5035654;28;20456;-71
2021/07/18 04:11:54;;;;;;;7.05;3.33;;;;;;;;;;5035822;28;20025;-71
2021/07/18 04:14:20;;;;;;;9.93;3.60;;;;;;;;;;5035751;28;20148;-72
2021/07/18 04:16:46;;;;;;;9.07;3.40;;;;;;;;;;5035932;28;20032;-71
2021/07/18 04:19:12;;;;;;;7.65;3.08;;;;;;;;;;5035712;28;20029;-71
2021/07/18 04:21:38;;;;;;;5.30;3.40;;;;;;;;;;5035754;28;20115;-71
2021/07/18 04:24:05;;;;;;;6.60;3.40;;;;;;;;;;5035108;28;20087;-71
2021/07/18 04:26:31;;;;;;;7.82;3.40;;;;;;;;;;5035552;28;20105;-71
2021/07/18 04:28:57;;;;;;;4.85;3.35;;;;;;;;;;5035107;28;20041;-71
2021/07/18 04:31:23;;;;;;;7.10;3.50;;;;;;;;;;5035346;28;20048;-71
2021/07/18 04:33:50;;;;;;;4.65;3.15;;;;;;;;;;5035048;28;20116;-71
2021/07/18 04:36:16;;;;;;;6.00;3.30;;;;;;;;;;5035388;28;20025;-71
2021/07/18 04:38:42;;;;;;;7.50;3.28;;;;;;;;;;5035286;28;20037;-71
2021/07/18 04:41:11;;;;;;;7.95;3.53;;;;;;;;;;5035393;28;20024;-71
2021/07/18 04:43:37;;;;;;;4.68;2.88;;;;;;;;;;5033889;28;20386;-71
2021/07/18 04:46:04;;;;;;;6.53;3.25;;;;;;;;;;5035291;28;20047;-71
2021/07/18 04:48:30;;;;;;;10.05;3.65;;;;;;;;;;5035143;28;20106;-71
2021/07/18 04:50:56;;;;;;;7.75;3.13;;;;;;;;;;5035203;28;20021;-71
2021/07/18 04:53:22;;;;;;;8.10;2.97;;;;;;;;;;5034808;28;20440;-71
2021/07/18 04:55:48;;;;;;;3.63;3.22;;;;;;;;;;5034802;28;20041;-72
2021/07/18 04:58:14;;;;;;;4.13;3.25;;;;;;;;;;5035405;28;20037;-71
2021/07/18 05:00:43;;;;;;;6.72;3.35;;;;;;;;;;5035260;28;20032;-71
2021/07/18 05:03:10;;;;;;;5.82;3.35;;;;;;;;;;5034995;28;20029;-72
2021/07/18 05:05:37;;;;;;;7.40;2.97;;;;;;;;;;5034845;28;20033;-71
2021/07/18 05:08:03;;;;;;;7.07;3.30;;;;;;;;;;5034914;28;20025;-71
2021/07/18 05:10:29;;;;;;;5.85;3.08;;;;;;;;;;5034689;28;20401;-70
2021/07/18 05:12:57;;;;;;;9.60;3.53;;;;;;;;;;5033782;28;20075;-70
2021/07/18 05:15:23;;;;;;;7.80;3.33;;;;;;;;;;5034513;28;20025;-71
2021/07/18 05:17:50;;;;;;;6.43;3.50;;;;;;;;;;5036133;28;20037;-70
2021/07/18 05:20:17;;;;;;;5.45;3.15;;;;;;;;;;5034219;28;20025;-70
2021/07/18 05:22:43;;;;;;;4.97;3.45;;;;;;;;;;5034264;28;20037;-70
2021/07/18 05:25:11;;;;;;;6.15;3.45;;;;;;;;;;5033995;28;20075;-71
2021/07/18 05:27:37;;;;;;;6.30;3.28;;;;;;;;;;5034097;28;20029;-70
2021/07/18 05:30:07;;;;;;;4.65;3.05;;;;;;;;;;5032818;28;20512;-70
2021/07/18 05:32:34;;;;;;;7.47;3.25;;;;;;;;;;5034033;28;20100;-70
2021/07/18 05:35:00;;;;;;;6.63;3.17;;;;;;;;;;5034081;28;20109;-70
2021/07/18 05:37:26;;;;;;;4.82;3.08;;;;;;;;;;5034091;28;20168;-70
2021/07/18 05:39:52;;;;;;;6.32;3.20;;;;;;;;;;5034120;28;20033;-70
2021/07/18 05:42:18;;;;;;;5.95;3.10;;;;;;;;;;5034064;28;20029;-70
2021/07/18 05:44:45;;;;;;;6.45;3.30;;;;;;;;;;5033817;28;20033;-70
2021/07/18 05:47:11;;;;;;;5.35;3.13;;;;;;;;;;5033923;28;20079;-71
2021/07/18 05:49:37;;;;;;;6.00;3.10;;;;;;;;;;5033689;28;20500;-69
2021/07/18 05:52:04;;;;;;;7.85;4.07;;;;;;;;;;5030824;28;20029;-67
2021/07/18 05:54:30;;;;;;;6.57;3.10;;;;;;;;;;5030807;28;20061;-68
2021/07/18 05:56:56;;;;;;;4.72;3.00;;;;;;;;;;5031733;28;20056;-68
2021/07/18 05:59:23;;;;;;;8.52;3.25;;;;;;;;;;5029654;28;20440;-68
2021/07/18 06:01:49;;;;;;;4.10;3.40;;;;;;;;;;5030343;28;20021;-68
2021/07/18 06:04:16;;;;;;;9.15;3.75;;;;;;;;;;5030629;28;20057;-69
2021/07/18 06:06:42;;;;;;;7.00;3.70;;;;;;;;;;5031656;28;20022;-68
2021/07/18 06:09:08;;;;;;;8.23;3.30;;;;;;;;;;5031780;28;20485;-68
2021/07/18 06:11:34;;;;;;;7.32;3.50;;;;;;;;;;5033722;28;20387;-68
2021/07/18 06:14:01;;;;;;;8.30;3.58;;;;;;;;;;5033419;28;20025;-68
2021/07/18 06:16:27;;;;;;;6.43;3.15;;;;;;;;;;5033520;28;20025;-68
2021/07/18 06:18:53;;;;;;;7.90;3.90;;;;;;;;;;5033329;28;20100;-73
2021/07/18 06:21:19;;;;;;;6.03;3.78;;;;;;;;;;5033193;28;20022;-69
2021/07/18 06:23:45;;;;;;;9.85;3.47;;;;;;;;;;5033165;28;20021;-69
2021/07/18 06:26:12;;;;;;;7.80;3.53;;;;;;;;;;5033048;28;20033;-69
2021/07/18 06:28:38;;;;;;;9.50;4.00;;;;;;;;;;5032773;28;20041;-69
2021/07/18 06:31:04;;;;;;;9.48;3.47;;;;;;;;;;5032844;28;20032;-68
2021/07/18 06:33:30;;;;;;;8.20;3.60;;;;;;;;;;5033038;28;20031;-68
2021/07/18 06:35:56;;;;;;;8.05;3.70;;;;;;;;;;5033209;28;20075;-68
2021/07/18 06:38:22;;;;;;;6.82;3.67;;;;;;;;;;5033144;28;20028;-68
2021/07/18 06:40:48;;;;;;;7.80;3.92;;;;;;;;;;5033230;28;20033;-68
2021/07/18 06:46:18;;;;;;;7.05;3.13;;;;;;;;;;5028039;22;20083;-74
2021/07/18 06:48:44;;;;;;;9.75;2.78;;;;;;;;;;5052939;28;20580;-76
2021/07/18 06:51:10;;;;;;;5.65;3.20;;;;;;;;;;5053111;28;20392;-77
2021/07/18 06:53:36;;;;;;;4.82;3.10;;;;;;;;;;5053113;28;20436;-77
2021/07/18 06:56:02;;;;;;;7.30;3.05;;;;;;;;;;5053073;28;20017;-77
2021/07/18 06:58:28;;;;;;;9.98;2.92;;;;;;;;;;5053085;28;20017;-76
2021/07/18 07:00:54;;;;;;;5.90;3.15;;;;;;;;;;5052851;28;20036;-76
2021/07/18 07:03:20;;;;;;;6.10;3.10;;;;;;;;;;5052849;28;20032;-76
2021/07/18 07:05:46;;;;;;;5.18;2.88;;;;;;;;;;5052720;28;20039;-77
2021/07/18 07:08:12;;;;;;;4.57;2.88;;;;;;;;;;5052819;28;20388;-77
2021/07/18 07:10:39;;;;;;;7.30;3.13;;;;;;;;;;5053160;28;20439;-76
2021/07/18 07:13:05;;;;;;;5.50;2.63;;;;;;;;;;5052500;28;20025;-76
2021/07/18 07:15:31;;;;;;;3.55;2.92;;;;;;;;;;5052563;28;20491;-75
2021/07/18 07:17:57;;;;;;;6.05;2.78;;;;;;;;;;5052797;28;20033;-77
2021/07/18 07:20:23;;;;;;;7.40;2.92;;;;;;;;;;5052603;28;20037;-75
2021/07/18 07:22:49;;;;;;;4.80;2.75;;;;;;;;;;5052595;28;20104;-76
2021/07/18 07:25:16;;;;;;;5.57;2.85;;;;;;;;;;5052392;28;20445;-76
2021/07/18 07:27:42;;;;;;;7.18;2.72;;;;;;;;;;5052351;28;20025;-75
2021/07/18 07:30:09;;;;;;;5.68;2.97;;;;;;;;;;5052493;28;20021;-82
2021/07/18 07:32:35;;;;;;;7.63;3.00;;;23.50;70.50;;;;;;5052422;28;20029;-82
2021/07/18 07:35:02;;;;;;;5.47;3.00;;;23.50;71.30;;;;;;5053902;28;20099;-83
2021/07/18 07:37:28;;;;;;;6.03;2.92;;;23.50;71.40;;;;;;5056744;28;20021;-86
2021/07/18 07:40:13;;;;;;;5.05;3.00;;;23.50;71.80;;;;;;5056039;28;20029;-82
2021/07/18 07:42:40;;;;;;;5.25;3.03;;;23.50;71.70;;;;;;5056441;28;20039;-83
2021/07/18 07:45:10;;;;;;;5.03;2.88;;;23.60;71.80;;;;;;5055966;28;20053;-82
2021/07/18 07:47:40;;;;;;;6.95;2.90;;;23.60;72.10;;;;;;5056028;28;20025;-83
2021/07/18 07:50:08;;;;;;;9.35;3.00;;;23.60;71.90;;;;;;5055803;28;20103;-81
2021/07/18 07:52:34;;;;;;;5.30;2.67;;;23.70;71.40;;;;;;5055163;28;20444;-81
2021/07/18 07:55:00;;;;;;;6.57;2.80;;;23.70;70.70;;;;;;5054742;28;20047;-81
2021/07/18 07:57:26;;;;;;;4.88;3.00;;;23.70;70.20;;;;;;5055282;28;20025;-83
2021/07/18 07:59:52;;;;;;;5.20;3.00;;;23.70;69.50;;;;;;5056246;28;20043;-83
2021/07/18 08:02:17;;;;;;;4.88;2.40;;;23.80;69.60;;;;;;5056291;28;20029;-83
2021/07/18 08:04:43;;;;;;;5.55;3.15;;;23.80;69.70;;;;;;5056149;28;20028;-83
2021/07/18 08:07:11;;;;;;;6.35;2.75;;;23.80;70.10;;;;;;5056182;28;20035;-83
2021/07/18 08:09:37;;;;;;;8.02;3.08;;;23.90;70.30;;;;;;5055825;28;20485;-83
2021/07/18 08:12:03;;;;;;;5.57;2.80;;;23.90;70.10;;;;;;5055830;28;20036;-84
2021/07/18 08:14:29;;;;;;;5.88;3.33;;;23.90;70.20;;;;;;5056035;28;20056;-84
2021/07/18 08:16:54;;;;;;;4.45;2.97;;;24.10;70.20;;;;;;5056211;28;20017;-82
2021/07/18 08:19:20;;;;;;;5.88;3.20;;;24.20;69.80;;;;;;5056060;28;20017;-83
2021/07/18 08:21:46;;;;;;;4.90;3.00;;;24.30;68.50;;;;;;5056046;28;20032;-82
2021/07/18 08:24:12;;;;;;;4.63;3.45;;;24.40;67.00;;;;;;5055768;28;20484;-82
2021/07/18 08:26:38;;;;;;;5.05;3.53;;;24.50;67.00;;;;;;5055761;28;20507;-82
2021/07/18 08:29:07;;;;;;;5.53;3.25;;;24.60;67.50;;;;;;5054502;28;20400;-82
2021/07/18 08:31:32;;;;;;;7.25;3.03;;;24.70;67.30;;;;;;5055663;28;20028;-81
2021/07/18 08:33:58;;;;;;;9.15;3.22;;;24.80;66.60;;;;;;5055596;28;20025;-82
2021/07/18 08:36:24;;;;;;;6.07;3.38;;;;;;;;;;5055613;28;20079;-81
2021/07/18 08:38:50;;;;;;;7.55;3.13;;;;;;;;;;5055668;28;20100;-82
2021/07/18 08:41:16;;;;;;;6.13;3.58;;;;;;;;;;5055424;28;20029;-82
2021/07/18 08:43:46;;;;;;;4.60;3.50;;;;;;;;;;5055370;28;20448;-81
2021/07/18 08:46:12;;;;;;;4.10;3.58;;;;;;;;;;5055279;28;20536;-81
2021/07/18 08:48:38;;;;;;;4.95;3.28;;;;;;;;;;5055264;28;20538;-81
2021/07/18 08:51:04;;;;;;;4.82;3.13;;;;;;;;;;5055355;28;20480;-82
2021/07/18 08:53:30;;;;;;;6.70;3.10;;;;;;;;;;5055238;28;20078;-82
2021/07/18 08:55:56;;;;;;;4.72;3.03;;;;;;;;;;5055607;28;20111;-80
2021/07/18 08:58:22;;;;;;;5.93;3.22;;;;;;;;;;5055157;28;20048;-82
2021/07/18 09:00:49;;;;;;;10.55;3.13;;;;;;;;;;5055431;28;20124;-82
2021/07/18 09:03:16;;;;;;;11.35;3.20;;;;;;;;;;5054976;28;20017;-81
2021/07/18 09:05:42;;;;;;;13.60;3.38;;;;;;;;;;5055174;28;20375;-81
2021/07/18 09:08:18;;;;;;;18.05;3.75;;;;;;;;;;5055043;28;20100;-82
2021/07/18 09:10:46;;;;;;;9.30;2.97;;;;;;;;;;5054815;28;20044;-81
2021/07/18 09:13:13;;;;;;;9.63;2.80;;;;;;;;;;5054704;28;20056;-81
2021/07/18 09:15:39;;;;;;;5.22;2.50;;;;;;;;;;5054888;28;20025;-81
2021/07/18 09:18:14;;;;;;;10.77;2.10;;;;;;;;;;5054944;28;20025;-82
2021/07/18 09:20:42;;;;;;;9.45;2.92;;;;;;;;;;5054733;28;20028;-82
2021/07/18 09:23:30;;;;;;;8.27;2.42;;;;;;;;;;5054457;28;20100;-83
2021/07/18 09:26:15;;;;;;;8.43;2.55;;;;;;;;;;5054903;28;20029;-83
2021/07/18 09:28:41;;;;;;;7.45;3.00;;;;;;;;;;5054589;28;20081;-82
2021/07/18 09:31:27;;;;;;;5.90;2.17;;;;;;;;;;5054576;28;20028;-81
2021/07/18 09:34:14;;;;;;;4.05;2.28;;;;;;;;;;5054702;28;20017;-81
2021/07/18 09:36:40;;;;;;;13.90;2.33;;;;;;;;;;5054755;28;20477;-82
2021/07/18 09:39:07;;;;;;;7.05;2.63;;;;;;;;;;5054781;28;20077;-82
2021/07/18 09:41:36;;;;;;;5.40;2.17;;;;;;;;;;5054458;28;20107;-78
2021/07/18 09:44:02;;;;;;;11.98;3.25;;;;;;;;;;5054057;28;20372;-77
2021/07/18 09:46:34;;;;;;;3.58;2.20;;;;;;;;;;5054034;28;20052;-75
2021/07/18 09:49:03;;;;;;;;;;;;;;;;;;5054428;28;20055;-78
2021/07/18 09:51:30;;;;;;;7.53;2.08;;;;;;;;;;5054406;28;19904;-65
2021/07/18 09:54:08;;;;;;;11.18;2.22;;;;;;;;;;5053909;28;20021;-79
2021/07/18 09:56:34;;;;;;;10.95;2.42;;;;;;;;;;5054033;28;20033;-65
2021/07/18 09:59:00;;;;;;;4.07;2.20;;;;;;;;;;5053600;28;20074;-79
2021/07/18 10:01:26;;;;;;;6.13;2.58;;;;;;;;;;5054113;28;20032;-79
2021/07/18 10:03:54;;;;;;;5.30;2.15;;;;;;;;;;5054086;28;20031;-78
2021/07/18 10:06:21;;;;;;;5.00;2.20;;;;;;;;;;5053927;28;20028;-79
2021/07/18 10:08:52;;;;;;;9.20;2.75;;;;;;;;;;5053603;28;20059;-78
2021/07/18 10:11:19;;;;;;;2.78;2.10;;;;;;;;;;5053778;28;20025;-79
2021/07/18 10:13:46;;;;;;;4.10;2.25;;;;;;;;;;5053753;28;20032;-79
2021/07/18 10:16:13;;;;;;;5.50;2.50;;;;;;;;;;5053868;28;20079;-79
2021/07/18 10:18:40;;;;;;;6.93;3.10;;;;;;;;;;5053628;28;20029;-78
2021/07/18 10:21:07;;;;;;;5.10;2.40;;;;;;;;;;5053604;28;20025;-77
2021/07/18 10:23:38;;;;;;;8.55;3.38;;;;;;;;;;5052911;28;20423;-75
2021/07/18 10:26:05;;;;;;;8.35;3.33;;;;;;;;;;5052251;28;20689;-79
2021/07/18 10:28:31;;;;;;;5.95;2.78;;;;;;;;;;5051936;28;20029;-78
2021/07/18 10:31:17;;;;;;;5.60;3.70;;;;;;;;;;5052951;28;20056;-77
2021/07/18 10:33:43;;;;;;;6.78;4.40;;;;;;;;;;5052441;28;20017;-74
2021/07/18 10:36:11;;;;;;;9.10;4.82;;;;;;;;;;5052815;28;20100;-76
2021/07/18 10:38:37;;;;;;;10.73;4.97;;;;;;;;;;5052924;28;20028;-75
2021/07/18 10:41:03;;;;;;;10.35;4.90;;;;;;;;;;5052964;28;20029;-77
2021/07/18 10:43:36;;;;;;;9.02;5.05;;;;;;;;;;5052934;28;20032;-77
2021/07/18 10:46:03;;;;;;;7.15;4.57;;;;;;;;;;5052959;28;20067;-76
2021/07/18 10:48:44;;;;;;;9.57;5.10;;;;;;;;;;5053038;28;20032;-77
2021/07/18 10:51:10;;;;;;;9.25;4.32;;;;;;;;;;5053402;28;20079;-77
2021/07/18 10:53:37;;;;;;;6.40;4.13;;;;;;;;;;5052990;28;20370;-76
2021/07/18 10:56:04;;;;;;;9.90;4.00;;;;;;;;;;5053308;28;20029;-76
2021/07/18 10:58:43;;;;;;;7.43;4.57;;;;;;;;;;5051129;28;20029;-76
2021/07/18 11:01:12;;;;;;;6.47;4.38;;;;;;;;;;5050339;28;20063;-78
2021/07/18 11:03:41;;;;;;;6.35;4.57;;;;;;;;;;5051060;28;20010;-76
2021/07/18 11:06:29;;;;;;;6.53;4.40;;;;;;;;;;5052954;28;20029;-75
2021/07/18 11:09:14;;;;;;;6.45;4.60;;;;;;;;;;5052927;28;20463;-75
2021/07/18 11:11:40;;;;;;;11.50;4.60;;;;;;;;;;5057025;28;20025;-77
2021/07/18 11:14:24;;;;;;;6.70;4.22;;;;;;;;;;5057046;28;20029;-77
2021/07/18 11:16:55;;;;;;;8.38;4.60;;;;;;;;;;5057029;28;20021;-77
2021/07/18 11:19:39;;;;;;;9.38;4.40;;;;;;;;;;5056815;28;20032;-77
2021/07/18 11:22:05;;;;;;;7.97;4.28;;;;;;;;;;5056897;28;20025;-76
2021/07/18 11:24:53;;;;;;;10.15;4.70;;;;;;;;;;5053916;28;20037;-77
2021/07/18 11:27:26;;;;;;;6.90;4.72;;;;;;;;;;5054234;28;20033;-78
2021/07/18 11:29:55;;;;;;;6.88;4.20;;;;;;;;;;5055127;28;20366;-75
2021/07/18 11:32:25;;;;;;;9.20;4.38;;;;;;;;;;5056223;28;20389;-76
2021/07/18 11:34:55;;;;;;;6.10;4.35;;;;;;;;;;5056349;28;20036;-77
2021/07/18 11:37:24;;;;;;;10.15;4.80;;;;;;;;;;5056931;28;20389;-76
2021/07/18 11:39:51;;;;;;;6.88;4.60;;;;;;;;;;5056445;28;20017;-75
2021/07/18 11:42:25;;;;;;;11.27;4.78;;;;;;;;;;5056699;28;20578;-73
2021/07/18 11:44:51;;;;;;;5.97;4.38;;;;;;;;;;5056103;28;20392;-74
2021/07/18 11:47:23;;;;;;;8.98;4.80;;;;;;;;;;5056099;28;20108;-69
2021/07/18 11:49:50;;;;;;;9.30;5.82;;;;;;;;;;5056542;28;20413;-74
2021/07/18 11:52:17;;;;;;;11.80;4.43;;;;;;;;;;5056412;28;20029;-72
2021/07/18 11:54:44;;;;;;;5.95;4.53;;;;;;;;;;5055762;28;20025;-75
2021/07/18 11:57:12;;;;;;;7.47;4.70;;;;;;;;;;5055751;28;20033;-77
2021/07/18 11:59:39;;;;;;;11.85;5.10;;;;;;;;;;5056310;28;20044;-74
2021/07/18 12:02:06;;;;;;;11.20;5.47;;;;;;;;;;5056011;28;20031;-82
2021/07/18 12:04:33;;;;;;;8.15;5.10;;;;;;;;;;5055170;28;20079;-82
2021/07/18 12:07:09;;;;;;;10.13;5.55;;;;;;;;;;5056533;28;20519;-82
2021/07/18 12:09:39;;;;;;;9.38;5.45;;;;;;;;;;5055808;28;20036;-82
2021/07/18 12:12:07;;;;;;;10.63;5.13;;;;;;;;;;5055647;28;20037;-83
2021/07/18 12:14:35;;;;;;;8.20;5.20;;;29.30;53.50;;;;;;5056430;28;20985;-83
2021/07/18 12:17:03;;;;;;;8.43;5.18;;;;;;;;;;5055863;28;20668;-83
2021/07/18 12:19:30;;;;;;;7.97;5.47;;;;;;;;;;5055784;28;20068;-82
2021/07/18 12:21:57;;;;;;;8.43;5.53;;;;;;;;;;5055370;28;20447;-66
2021/07/18 12:24:33;;;;;;;9.77;5.43;;;;;;;;;;5055260;28;20075;-66
2021/07/18 12:27:01;;;;;;;8.65;4.88;;;;;;;;;;5055667;28;20033;-69
2021/07/18 12:29:28;;;;;;;8.93;4.75;;;;;;;;;;5055538;28;20546;-67
2021/07/18 12:31:54;;;;;;;9.20;4.25;;;;;;;;;;5055514;28;20032;-66
2021/07/18 12:34:48;;;;;;;6.85;4.28;;;29.00;56.80;;;;;;5055519;28;20064;-66
2021/07/18 12:37:22;;;;;;;8.35;4.20;;;29.30;53.00;;;;;;5053393;28;20102;-67
2021/07/18 12:39:56;;;;;;;7.00;4.60;;;29.30;53.50;;;;;;5052623;28;20410;-67
2021/07/18 12:42:28;;;;;;;6.47;4.47;;;29.40;52.20;;;;;;5054251;28;20028;-66
2021/07/18 12:44:56;;;;;;;10.77;4.50;;;29.40;52.90;;;;;;5055086;28;20174;-66
2021/07/18 12:47:50;;;;;;;9.77;4.78;;;29.50;51.70;;;;;;5055093;28;20032;-66
2021/07/18 12:50:37;;;;;;;11.82;5.03;;;29.50;51.30;;;;;;5048935;28;20037;-66
2021/07/18 12:53:14;;;;;;;5.40;4.90;;;29.60;51.60;;;;;;5055255;28;20041;-66
2021/07/18 12:56:03;;;;;;;10.02;4.65;;;29.60;52.20;;;;;;5054811;28;20060;-67
2021/07/18 12:58:41;;;;;;;6.78;3.90;;;29.70;51.10;;;;;;5054714;28;20032;-66
2021/07/18 13:01:17;;;;;;;4.97;3.20;;;29.80;51.70;;;;;;5054813;28;20108;-69
2021/07/18 13:03:44;;;;;;;9.50;3.33;;;29.70;49.20;;;;;;5054782;28;20369;-67
2021/07/18 13:06:20;;;;;;;7.07;3.20;;;29.70;49.00;;;;;;5054866;28;20076;-66
2021/07/18 13:08:47;;;;;;;5.55;2.80;;;29.60;49.10;;;;;;5054683;28;20029;-66
2021/07/18 13:11:34;;;;;;;5.47;2.50;;;;;;;;;;5054587;28;20025;-66
2021/07/18 13:14:18;;;;;;;3.75;2.65;;;;;;;;;;5043022;28;20447;-66
2021/07/18 13:16:44;;;;;;;4.95;2.47;;;29.50;49.10;;;;;;5054704;28;20104;-66
2021/07/18 13:19:14;;;;;;;6.43;2.50;;;29.20;48.20;;;;;;5054411;28;20064;-66
2021/07/18 13:21:41;;;;;;;8.82;2.80;;;29.10;47.80;;;;;;5054486;28;20416;-66
2021/07/18 13:24:07;;;;;;;5.93;2.40;;;28.90;47.50;;;;;;5054240;28;20524;-66
2021/07/18 13:26:42;;;;;;;7.55;3.25;;;;;;;;;;5054616;28;20021;-66
2021/07/18 13:29:16;;;;;;;4.45;2.13;;;28.80;47.60;;;;;;5054002;28;20036;-66
2021/07/18 13:31:43;;;;;;;3.72;2.40;;;28.60;47.40;;;;;;5054021;28;20427;-66
2021/07/18 13:34:10;;;;;;;6.80;2.10;;;28.50;47.70;;;;;;5053745;28;20029;-66
2021/07/18 13:36:36;;;;;;;3.28;2.10;;;;;;;;;;5054296;28;20025;-66
2021/07/18 13:39:11;;;;;;;4.25;2.38;;;;;;;;;;5054117;28;20028;-66
2021/07/18 13:41:40;;;;;;;5.05;1.90;;;;;;;;;;5053703;28;20082;-66
2021/07/18 13:44:06;;;;;;;4.00;2.17;;;;;;;;;;5053905;28;20025;-67
2021/07/18 13:46:33;;;;;;;5.88;1.85;;;;;;;;;;5053988;28;20040;-66
2021/07/18 13:48:59;;;;;;;4.55;2.15;;;28.40;47.50;;;;;;5053526;28;20115;-66
2021/07/18 13:51:29;;;;;;;4.78;2.40;;;28.00;48.90;;;;;;5052504;28;20053;-66
2021/07/18 13:53:56;;;;;;;6.30;1.98;;;27.90;48.60;;;;;;5052690;28;20020;-66
2021/07/18 13:56:22;;;;;;;2.33;2.08;;;27.80;49.60;;;;;;5052743;28;20056;-66
2021/07/18 13:58:48;;;;;;;10.63;2.63;;;27.70;48.90;;;;;;5052218;28;20063;-66
2021/07/18 14:01:14;;;;;;;6.97;2.88;;;27.70;48.50;;;;;;5052441;28;20404;-66
2021/07/18 14:03:42;;;;;;;5.43;2.53;;;27.70;47.90;;;;;;5052012;28;20048;-66
2021/07/18 14:06:08;;;;;;;3.65;2.60;;;27.70;47.20;;;;;;5053251;28;20029;-67
2021/07/18 14:08:34;;;;;;;4.30;2.20;;;27.70;46.50;;;;;;5051385;28;20040;-67
2021/07/18 14:11:00;;;;;;;3.67;2.13;;;27.70;46.70;;;;;;5050385;28;20033;-65
2021/07/18 14:13:25;;;;;;;2.30;1.90;;;27.70;46.30;;;;;;5050915;28;20549;-66
2021/07/18 14:15:51;;;;;;;5.78;2.15;;;27.70;46.20;;;;;;5053004;28;20056;-65
2021/07/18 14:18:17;;;;;;;2.85;1.95;;;27.70;46.20;;;;;;5053396;28;20623;-66
2021/07/18 14:20:43;;;;;;;4.70;2.10;;;27.70;46.80;;;;;;5051582;28;20037;-66
2021/07/18 14:23:11;;;;;;;3.78;2.45;;;27.70;47.50;;;;;;5049867;28;20049;-67
2021/07/18 14:25:38;;;;;;;4.68;2.22;;;27.70;47.50;;;;;;5048920;28;20025;-66